sensor_id;sensor_type;location;lat;lon;timestamp;P1;durP1;ratioP1;P2;durP2;ratioP2
26989;SDS011;14537;47.788;11.858;2023-03-03T00:01:16;36.67;;;13.82;;
26989;SDS011;14537;47.788;11.858;2023-03-03T00:03:42;33.05;;;13.38;;
26989;SDS011;14537;47.788;11.858;2023-03-03T00:06:09;31.48;;;12.70;;
26989;SDS011;14537;47.788;11.858;2023-03-03T00:08:36;36.03;;;13.13;;
26989;SDS011;14537;47.788;11.858;2023-03-03T00:11:02;33.33;;;11.80;;
26989;SDS011;14537;47.788;11.858;2023-03-03T00:13:30;34.67;;;13.23;;
26989;SDS011;14537;47.788;11.858;2023-03-03T00:18:50;35.15;;;13.57;;
26989;SDS011;14537;47.788;11.858;2023-03-03T00:21:27;37.47;;;14.07;;
26989;SDS011;14537;47.788;11.858;2023-03-03T00:24:04;41.13;;;14.88;;
26989;SDS011;14537;47.788;11.858;2023-03-03T00:26:39;37.08;;;13.43;;
26989;SDS011;14537;47.788;11.858;2023-03-03T00:29:49;40.47;;;13.43;;
26989;SDS011;14537;47.788;11.858;2023-03-03T00:34:47;35.25;;;13.50;;
26989;SDS011;14537;47.788;11.858;2023-03-03T00:39:57;35.45;;;14.10;;
26989;SDS011;14537;47.788;11.858;2023-03-03T00:42:46;32.80;;;13.35;;
26989;SDS011;14537;47.788;11.858;2023-03-03T00:45:23;35.92;;;12.43;;
26989;SDS011;14537;47.788;11.858;2023-03-03T00:47:55;33.47;;;14.23;;
26989;SDS011;14537;47.788;11.858;2023-03-03T00:53:10;41.22;;;13.63;;
26989;SDS011;14537;47.788;11.858;2023-03-03T00:55:43;36.33;;;14.00;;
26989;SDS011;14537;47.788;11.858;2023-03-03T00:58:10;29.90;;;12.77;;
26989;SDS011;14537;47.788;11.858;2023-03-03T01:00:36;37.58;;;14.50;;
26989;SDS011;14537;47.788;11.858;2023-03-03T01:03:04;36.30;;;13.77;;
26989;SDS011;14537;47.788;11.858;2023-03-03T01:05:32;37.97;;;13.43;;
26989;SDS011;14537;47.788;11.858;2023-03-03T01:07:58;30.48;;;12.40;;
26989;SDS011;14537;47.788;11.858;2023-03-03T01:10:25;40.58;;;13.20;;
26989;SDS011;14537;47.788;11.858;2023-03-03T01:12:52;33.67;;;13.18;;
26989;SDS011;14537;47.788;11.858;2023-03-03T01:15:19;43.25;;;14.68;;
26989;SDS011;14537;47.788;11.858;2023-03-03T01:17:45;33.35;;;13.07;;
26989;SDS011;14537;47.788;11.858;2023-03-03T01:20:11;37.58;;;13.75;;
26989;SDS011;14537;47.788;11.858;2023-03-03T01:22:38;32.08;;;13.20;;
26989;SDS011;14537;47.788;11.858;2023-03-03T01:25:04;35.05;;;11.82;;
26989;SDS011;14537;47.788;11.858;2023-03-03T01:27:30;32.88;;;11.68;;
26989;SDS011;14537;47.788;11.858;2023-03-03T01:29:56;33.33;;;12.75;;
26989;SDS011;14537;47.788;11.858;2023-03-03T01:32:25;39.85;;;14.63;;
26989;SDS011;14537;47.788;11.858;2023-03-03T01:34:52;30.83;;;13.18;;
26989;SDS011;14537;47.788;11.858;2023-03-03T01:37:18;29.08;;;13.07;;
26989;SDS011;14537;47.788;11.858;2023-03-03T01:39:54;39.42;;;15.45;;
26989;SDS011;14537;47.788;11.858;2023-03-03T01:42:20;34.40;;;14.27;;
26989;SDS011;14537;47.788;11.858;2023-03-03T01:44:46;41.40;;;14.45;;
26989;SDS011;14537;47.788;11.858;2023-03-03T01:47:16;35.70;;;13.32;;
26989;SDS011;14537;47.788;11.858;2023-03-03T01:52:38;42.60;;;16.05;;
26989;SDS011;14537;47.788;11.858;2023-03-03T01:55:27;36.05;;;14.25;;
26989;SDS011;14537;47.788;11.858;2023-03-03T01:57:55;36.45;;;13.73;;
26989;SDS011;14537;47.788;11.858;2023-03-03T02:00:28;38.78;;;14.60;;
26989;SDS011;14537;47.788;11.858;2023-03-03T02:02:54;38.78;;;14.77;;
26989;SDS011;14537;47.788;11.858;2023-03-03T02:05:20;36.60;;;14.55;;
26989;SDS011;14537;47.788;11.858;2023-03-03T02:07:46;32.03;;;13.25;;
26989;SDS011;14537;47.788;11.858;2023-03-03T02:10:14;37.00;;;14.80;;
26989;SDS011;14537;47.788;11.858;2023-03-03T02:12:42;36.20;;;14.30;;
26989;SDS011;14537;47.788;11.858;2023-03-03T02:17:41;39.08;;;13.80;;
26989;SDS011;14537;47.788;11.858;2023-03-03T02:22:59;80.88;;;22.33;;
26989;SDS011;14537;47.788;11.858;2023-03-03T02:31:04;40.08;;;14.00;;
26989;SDS011;14537;47.788;11.858;2023-03-03T02:33:31;40.00;;;13.95;;
26989;SDS011;14537;47.788;11.858;2023-03-03T02:35:57;40.65;;;14.95;;
26989;SDS011;14537;47.788;11.858;2023-03-03T02:41:06;37.88;;;13.63;;
26989;SDS011;14537;47.788;11.858;2023-03-03T02:43:43;32.80;;;12.65;;
26989;SDS011;14537;47.788;11.858;2023-03-03T02:46:11;26.63;;;11.38;;
26989;SDS011;14537;47.788;11.858;2023-03-03T02:48:36;38.15;;;13.38;;
26989;SDS011;14537;47.788;11.858;2023-03-03T02:51:02;33.70;;;12.32;;
26989;SDS011;14537;47.788;11.858;2023-03-03T02:53:28;40.83;;;13.82;;
26989;SDS011;14537;47.788;11.858;2023-03-03T02:55:53;31.88;;;12.95;;
26989;SDS011;14537;47.788;11.858;2023-03-03T02:58:19;31.60;;;12.57;;
26989;SDS011;14537;47.788;11.858;2023-03-03T03:00:45;36.45;;;13.88;;
26989;SDS011;14537;47.788;11.858;2023-03-03T03:03:13;40.13;;;14.70;;
26989;SDS011;14537;47.788;11.858;2023-03-03T03:05:39;36.17;;;13.77;;
26989;SDS011;14537;47.788;11.858;2023-03-03T03:08:04;37.65;;;14.57;;
26989;SDS011;14537;47.788;11.858;2023-03-03T03:10:30;41.00;;;15.15;;
26989;SDS011;14537;47.788;11.858;2023-03-03T03:12:56;45.08;;;15.20;;
26989;SDS011;14537;47.788;11.858;2023-03-03T03:15:21;44.38;;;13.85;;
26989;SDS011;14537;47.788;11.858;2023-03-03T03:17:47;43.15;;;14.93;;
26989;SDS011;14537;47.788;11.858;2023-03-03T03:20:12;41.00;;;14.70;;
26989;SDS011;14537;47.788;11.858;2023-03-03T03:22:39;37.90;;;13.93;;
26989;SDS011;14537;47.788;11.858;2023-03-03T03:25:04;38.65;;;14.00;;
26989;SDS011;14537;47.788;11.858;2023-03-03T03:27:30;50.60;;;15.43;;
26989;SDS011;14537;47.788;11.858;2023-03-03T03:29:56;51.03;;;15.35;;
26989;SDS011;14537;47.788;11.858;2023-03-03T03:32:21;42.42;;;14.40;;
26989;SDS011;14537;47.788;11.858;2023-03-03T03:34:47;42.35;;;15.85;;
26989;SDS011;14537;47.788;11.858;2023-03-03T03:37:13;43.28;;;14.40;;
26989;SDS011;14537;47.788;11.858;2023-03-03T03:39:39;35.60;;;14.32;;
26989;SDS011;14537;47.788;11.858;2023-03-03T03:42:05;37.70;;;14.68;;
26989;SDS011;14537;47.788;11.858;2023-03-03T03:44:30;40.13;;;15.07;;
26989;SDS011;14537;47.788;11.858;2023-03-03T03:46:56;41.88;;;16.13;;
26989;SDS011;14537;47.788;11.858;2023-03-03T03:49:22;37.75;;;14.80;;
26989;SDS011;14537;47.788;11.858;2023-03-03T03:51:47;34.50;;;12.95;;
26989;SDS011;14537;47.788;11.858;2023-03-03T03:54:13;40.78;;;14.75;;
26989;SDS011;14537;47.788;11.858;2023-03-03T03:56:38;36.50;;;13.68;;
26989;SDS011;14537;47.788;11.858;2023-03-03T03:59:04;35.00;;;13.27;;
26989;SDS011;14537;47.788;11.858;2023-03-03T04:01:31;36.45;;;13.68;;
26989;SDS011;14537;47.788;11.858;2023-03-03T04:03:56;32.90;;;12.70;;
26989;SDS011;14537;47.788;11.858;2023-03-03T04:06:22;40.10;;;14.60;;
26989;SDS011;14537;47.788;11.858;2023-03-03T04:08:47;37.15;;;13.25;;
26989;SDS011;14537;47.788;11.858;2023-03-03T04:11:13;36.47;;;14.68;;
26989;SDS011;14537;47.788;11.858;2023-03-03T04:13:39;34.97;;;13.48;;
26989;SDS011;14537;47.788;11.858;2023-03-03T04:16:04;37.55;;;13.40;;
26989;SDS011;14537;47.788;11.858;2023-03-03T04:18:30;33.63;;;13.43;;
26989;SDS011;14537;47.788;11.858;2023-03-03T04:20:56;36.75;;;12.45;;
26989;SDS011;14537;47.788;11.858;2023-03-03T04:23:22;40.10;;;14.85;;
26989;SDS011;14537;47.788;11.858;2023-03-03T04:25:47;31.05;;;12.40;;
26989;SDS011;14537;47.788;11.858;2023-03-03T04:28:14;31.38;;;11.48;;
26989;SDS011;14537;47.788;11.858;2023-03-03T04:30:40;33.20;;;13.32;;
26989;SDS011;14537;47.788;11.858;2023-03-03T04:33:05;45.58;;;15.60;;
26989;SDS011;14537;47.788;11.858;2023-03-03T04:35:31;35.42;;;13.13;;
26989;SDS011;14537;47.788;11.858;2023-03-03T04:37:57;37.10;;;14.10;;
26989;SDS011;14537;47.788;11.858;2023-03-03T04:40:22;33.80;;;12.30;;
26989;SDS011;14537;47.788;11.858;2023-03-03T04:42:48;33.55;;;12.05;;
26989;SDS011;14537;47.788;11.858;2023-03-03T04:45:14;38.00;;;14.25;;
26989;SDS011;14537;47.788;11.858;2023-03-03T04:47:40;30.48;;;12.30;;
26989;SDS011;14537;47.788;11.858;2023-03-03T04:50:06;34.63;;;12.95;;
26989;SDS011;14537;47.788;11.858;2023-03-03T04:52:32;28.08;;;11.10;;
26989;SDS011;14537;47.788;11.858;2023-03-03T04:54:58;32.17;;;12.20;;
26989;SDS011;14537;47.788;11.858;2023-03-03T04:57:23;33.33;;;12.50;;
26989;SDS011;14537;47.788;11.858;2023-03-03T04:59:49;37.28;;;13.68;;
26989;SDS011;14537;47.788;11.858;2023-03-03T05:02:15;28.13;;;10.85;;
26989;SDS011;14537;47.788;11.858;2023-03-03T05:04:41;30.65;;;12.55;;
26989;SDS011;14537;47.788;11.858;2023-03-03T05:07:07;43.60;;;15.68;;
26989;SDS011;14537;47.788;11.858;2023-03-03T05:09:32;37.30;;;14.45;;
26989;SDS011;14537;47.788;11.858;2023-03-03T05:11:58;39.63;;;14.27;;
26989;SDS011;14537;47.788;11.858;2023-03-03T05:14:24;34.70;;;13.75;;
26989;SDS011;14537;47.788;11.858;2023-03-03T05:16:50;39.33;;;14.85;;
26989;SDS011;14537;47.788;11.858;2023-03-03T05:19:16;39.03;;;14.43;;
26989;SDS011;14537;47.788;11.858;2023-03-03T05:21:42;35.95;;;13.93;;
26989;SDS011;14537;47.788;11.858;2023-03-03T05:24:08;38.28;;;14.38;;
26989;SDS011;14537;47.788;11.858;2023-03-03T05:26:34;37.63;;;13.85;;
26989;SDS011;14537;47.788;11.858;2023-03-03T05:29:00;36.72;;;13.35;;
26989;SDS011;14537;47.788;11.858;2023-03-03T05:31:25;41.40;;;13.50;;
26989;SDS011;14537;47.788;11.858;2023-03-03T05:33:52;40.53;;;13.90;;
26989;SDS011;14537;47.788;11.858;2023-03-03T05:36:18;37.10;;;13.80;;
26989;SDS011;14537;47.788;11.858;2023-03-03T05:38:44;31.33;;;11.52;;
26989;SDS011;14537;47.788;11.858;2023-03-03T05:41:09;33.90;;;12.73;;
26989;SDS011;14537;47.788;11.858;2023-03-03T05:43:35;38.90;;;13.70;;
26989;SDS011;14537;47.788;11.858;2023-03-03T05:46:01;36.17;;;13.50;;
26989;SDS011;14537;47.788;11.858;2023-03-03T05:48:27;42.92;;;13.07;;
26989;SDS011;14537;47.788;11.858;2023-03-03T05:50:53;36.15;;;12.95;;
26989;SDS011;14537;47.788;11.858;2023-03-03T05:53:21;38.17;;;13.43;;
26989;SDS011;14537;47.788;11.858;2023-03-03T05:55:47;34.72;;;14.05;;
26989;SDS011;14537;47.788;11.858;2023-03-03T05:58:13;29.80;;;11.73;;
26989;SDS011;14537;47.788;11.858;2023-03-03T06:00:39;34.85;;;12.85;;
26989;SDS011;14537;47.788;11.858;2023-03-03T06:03:04;34.33;;;12.65;;
26989;SDS011;14537;47.788;11.858;2023-03-03T06:05:30;44.63;;;14.65;;
26989;SDS011;14537;47.788;11.858;2023-03-03T06:07:56;41.17;;;14.68;;
26989;SDS011;14537;47.788;11.858;2023-03-03T06:10:21;41.90;;;13.60;;
26989;SDS011;14537;47.788;11.858;2023-03-03T06:12:47;35.90;;;13.38;;
26989;SDS011;14537;47.788;11.858;2023-03-03T06:15:12;38.15;;;13.82;;
26989;SDS011;14537;47.788;11.858;2023-03-03T06:17:38;39.80;;;12.15;;
26989;SDS011;14537;47.788;11.858;2023-03-03T06:20:04;36.25;;;13.10;;
26989;SDS011;14537;47.788;11.858;2023-03-03T06:22:30;40.90;;;13.43;;
26989;SDS011;14537;47.788;11.858;2023-03-03T06:24:56;36.63;;;12.80;;
26989;SDS011;14537;47.788;11.858;2023-03-03T06:27:22;38.97;;;13.23;;
26989;SDS011;14537;47.788;11.858;2023-03-03T06:29:47;40.78;;;14.70;;
26989;SDS011;14537;47.788;11.858;2023-03-03T06:32:13;40.72;;;15.50;;
26989;SDS011;14537;47.788;11.858;2023-03-03T06:34:39;39.70;;;15.45;;
26989;SDS011;14537;47.788;11.858;2023-03-03T06:37:05;42.47;;;16.02;;
26989;SDS011;14537;47.788;11.858;2023-03-03T06:39:30;43.58;;;16.25;;
26989;SDS011;14537;47.788;11.858;2023-03-03T06:41:56;40.58;;;15.73;;
26989;SDS011;14537;47.788;11.858;2023-03-03T06:44:21;46.70;;;17.13;;
26989;SDS011;14537;47.788;11.858;2023-03-03T06:46:47;43.45;;;17.20;;
26989;SDS011;14537;47.788;11.858;2023-03-03T06:49:13;41.10;;;16.10;;
26989;SDS011;14537;47.788;11.858;2023-03-03T06:51:38;37.38;;;15.02;;
26989;SDS011;14537;47.788;11.858;2023-03-03T06:54:14;48.97;;;15.57;;
26989;SDS011;14537;47.788;11.858;2023-03-03T06:56:46;45.33;;;18.05;;
26989;SDS011;14537;47.788;11.858;2023-03-03T06:59:18;40.75;;;15.60;;
26989;SDS011;14537;47.788;11.858;2023-03-03T07:01:46;42.13;;;14.57;;
26989;SDS011;14537;47.788;11.858;2023-03-03T07:04:29;41.33;;;14.38;;
26989;SDS011;14537;47.788;11.858;2023-03-03T07:07:18;35.13;;;13.32;;
26989;SDS011;14537;47.788;11.858;2023-03-03T07:09:46;38.92;;;14.10;;
26989;SDS011;14537;47.788;11.858;2023-03-03T07:12:15;37.63;;;14.38;;
26989;SDS011;14537;47.788;11.858;2023-03-03T07:14:43;40.00;;;13.98;;
26989;SDS011;14537;47.788;11.858;2023-03-03T07:17:16;35.50;;;12.82;;
26989;SDS011;14537;47.788;11.858;2023-03-03T07:19:43;41.78;;;14.80;;
26989;SDS011;14537;47.788;11.858;2023-03-03T07:22:21;48.72;;;16.02;;
26989;SDS011;14537;47.788;11.858;2023-03-03T07:24:50;47.85;;;15.65;;
26989;SDS011;14537;47.788;11.858;2023-03-03T07:29:45;39.95;;;15.27;;
26989;SDS011;14537;47.788;11.858;2023-03-03T07:32:22;42.55;;;15.00;;
26989;SDS011;14537;47.788;11.858;2023-03-03T07:37:36;53.45;;;15.85;;
26989;SDS011;14537;47.788;11.858;2023-03-03T07:43:52;55.65;;;16.90;;
26989;SDS011;14537;47.788;11.858;2023-03-03T07:45:56;45.80;;;15.52;;
26989;SDS011;14537;47.788;11.858;2023-03-03T07:48:43;50.97;;;18.27;;
26989;SDS011;14537;47.788;11.858;2023-03-03T07:51:13;50.67;;;17.75;;
26989;SDS011;14537;47.788;11.858;2023-03-03T07:54:14;44.55;;;16.45;;
26989;SDS011;14537;47.788;11.858;2023-03-03T07:56:52;45.38;;;17.40;;
26989;SDS011;14537;47.788;11.858;2023-03-03T08:13:17;51.17;;;18.13;;
26989;SDS011;14537;47.788;11.858;2023-03-03T08:15:48;49.95;;;18.23;;
26989;SDS011;14537;47.788;11.858;2023-03-03T08:18:24;48.83;;;17.00;;
26989;SDS011;14537;47.788;11.858;2023-03-03T08:20:58;50.65;;;16.63;;
26989;SDS011;14537;47.788;11.858;2023-03-03T08:23:25;50.05;;;15.98;;
26989;SDS011;14537;47.788;11.858;2023-03-03T08:25:51;62.38;;;20.52;;
26989;SDS011;14537;47.788;11.858;2023-03-03T08:28:17;57.42;;;18.02;;
26989;SDS011;14537;47.788;11.858;2023-03-03T08:30:45;52.38;;;18.33;;
26989;SDS011;14537;47.788;11.858;2023-03-03T08:33:11;51.80;;;17.77;;
26989;SDS011;14537;47.788;11.858;2023-03-03T08:35:37;61.72;;;18.10;;
26989;SDS011;14537;47.788;11.858;2023-03-03T08:38:03;59.90;;;19.55;;
26989;SDS011;14537;47.788;11.858;2023-03-03T08:40:30;52.22;;;18.35;;
26989;SDS011;14537;47.788;11.858;2023-03-03T08:42:56;52.17;;;18.90;;
26989;SDS011;14537;47.788;11.858;2023-03-03T08:45:22;57.50;;;21.20;;
26989;SDS011;14537;47.788;11.858;2023-03-03T08:47:48;56.15;;;19.42;;
26989;SDS011;14537;47.788;11.858;2023-03-03T08:50:14;68.38;;;20.17;;
26989;SDS011;14537;47.788;11.858;2023-03-03T08:52:40;54.00;;;18.58;;
26989;SDS011;14537;47.788;11.858;2023-03-03T08:55:06;55.38;;;19.30;;
26989;SDS011;14537;47.788;11.858;2023-03-03T08:57:31;59.47;;;19.77;;
26989;SDS011;14537;47.788;11.858;2023-03-03T08:59:57;59.03;;;19.48;;
26989;SDS011;14537;47.788;11.858;2023-03-03T09:02:22;57.95;;;19.98;;
26989;SDS011;14537;47.788;11.858;2023-03-03T09:04:48;58.85;;;19.05;;
26989;SDS011;14537;47.788;11.858;2023-03-03T09:07:14;55.40;;;18.13;;
26989;SDS011;14537;47.788;11.858;2023-03-03T09:09:39;52.08;;;19.52;;
26989;SDS011;14537;47.788;11.858;2023-03-03T09:12:11;53.67;;;19.75;;
26989;SDS011;14537;47.788;11.858;2023-03-03T09:14:46;56.78;;;20.27;;
26989;SDS011;14537;47.788;11.858;2023-03-03T09:17:22;59.17;;;19.48;;
26989;SDS011;14537;47.788;11.858;2023-03-03T09:19:51;50.90;;;18.13;;
26989;SDS011;14537;47.788;11.858;2023-03-03T09:22:21;49.10;;;18.60;;
26989;SDS011;14537;47.788;11.858;2023-03-03T09:24:48;54.95;;;19.77;;
26989;SDS011;14537;47.788;11.858;2023-03-03T09:29:47;56.40;;;18.48;;
26989;SDS011;14537;47.788;11.858;2023-03-03T09:37:51;54.20;;;18.42;;
26989;SDS011;14537;47.788;11.858;2023-03-03T09:57:29;65.57;;;22.10;;
26989;SDS011;14537;47.788;11.858;2023-03-03T10:00:05;70.53;;;24.90;;
26989;SDS011;14537;47.788;11.858;2023-03-03T10:11:08;56.55;;;19.98;;
26989;SDS011;14537;47.788;11.858;2023-03-03T10:16:31;56.97;;;19.70;;
26989;SDS011;14537;47.788;11.858;2023-03-03T10:30:58;62.58;;;21.33;;
26989;SDS011;14537;47.788;11.858;2023-03-03T10:33:40;54.05;;;20.00;;
26989;SDS011;14537;47.788;11.858;2023-03-03T10:47:15;56.53;;;22.15;;
26989;SDS011;14537;47.788;11.858;2023-03-03T10:52:36;63.25;;;21.92;;
26989;SDS011;14537;47.788;11.858;2023-03-03T10:58:29;61.92;;;21.15;;
26989;SDS011;14537;47.788;11.858;2023-03-03T11:01:25;64.88;;;22.02;;
26989;SDS011;14537;47.788;11.858;2023-03-03T11:14:44;64.65;;;21.73;;
26989;SDS011;14537;47.788;11.858;2023-03-03T11:17:25;61.10;;;21.48;;
26989;SDS011;14537;47.788;11.858;2023-03-03T11:22:37;54.50;;;19.60;;
26989;SDS011;14537;47.788;11.858;2023-03-03T11:25:25;54.40;;;20.55;;
26989;SDS011;14537;47.788;11.858;2023-03-03T11:36:38;56.70;;;19.30;;
26989;SDS011;14537;47.788;11.858;2023-03-03T11:39:17;60.90;;;19.93;;
26989;SDS011;14537;47.788;11.858;2023-03-03T11:41:53;49.80;;;19.08;;
26989;SDS011;14537;47.788;11.858;2023-03-03T11:44:23;60.00;;;20.65;;
26989;SDS011;14537;47.788;11.858;2023-03-03T11:47:28;56.05;;;18.77;;
26989;SDS011;14537;47.788;11.858;2023-03-03T11:50:03;61.72;;;20.50;;
26989;SDS011;14537;47.788;11.858;2023-03-03T11:55:38;57.55;;;19.58;;
26989;SDS011;14537;47.788;11.858;2023-03-03T11:58:25;60.50;;;20.67;;
26989;SDS011;14537;47.788;11.858;2023-03-03T12:04:18;55.63;;;19.63;;
26989;SDS011;14537;47.788;11.858;2023-03-03T12:09:19;53.88;;;18.30;;
26989;SDS011;14537;47.788;11.858;2023-03-03T12:12:14;51.65;;;18.45;;
26989;SDS011;14537;47.788;11.858;2023-03-03T12:15:05;58.08;;;20.08;;
26989;SDS011;14537;47.788;11.858;2023-03-03T12:29:31;54.08;;;18.98;;
26989;SDS011;14537;47.788;11.858;2023-03-03T12:34:57;58.25;;;22.02;;
26989;SDS011;14537;47.788;11.858;2023-03-03T12:48:46;57.42;;;19.38;;
26989;SDS011;14537;47.788;11.858;2023-03-03T13:16:14;63.33;;;22.23;;
26989;SDS011;14537;47.788;11.858;2023-03-03T13:19:19;58.42;;;20.73;;
26989;SDS011;14537;47.788;11.858;2023-03-03T13:21:54;58.88;;;20.60;;
26989;SDS011;14537;47.788;11.858;2023-03-03T13:24:34;49.88;;;19.48;;
26989;SDS011;14537;47.788;11.858;2023-03-03T13:27:22;60.22;;;20.45;;
26989;SDS011;14537;47.788;11.858;2023-03-03T13:32:34;58.78;;;20.55;;
26989;SDS011;14537;47.788;11.858;2023-03-03T13:35:26;62.53;;;21.52;;
26989;SDS011;14537;47.788;11.858;2023-03-03T13:37:57;57.83;;;20.75;;
26989;SDS011;14537;47.788;11.858;2023-03-03T13:40:25;58.83;;;21.60;;
26989;SDS011;14537;47.788;11.858;2023-03-03T13:42:58;54.67;;;19.10;;
26989;SDS011;14537;47.788;11.858;2023-03-03T13:48:41;55.10;;;19.92;;
26989;SDS011;14537;47.788;11.858;2023-03-03T13:51:25;47.85;;;18.73;;
26989;SDS011;14537;47.788;11.858;2023-03-03T13:57:10;51.13;;;19.80;;
26989;SDS011;14537;47.788;11.858;2023-03-03T14:00:04;54.72;;;19.88;;
26989;SDS011;14537;47.788;11.858;2023-03-03T14:05:45;50.35;;;19.08;;
26989;SDS011;14537;47.788;11.858;2023-03-03T14:11:16;52.17;;;18.55;;
26989;SDS011;14537;47.788;11.858;2023-03-03T14:14:12;52.28;;;18.70;;
26989;SDS011;14537;47.788;11.858;2023-03-03T14:25:10;57.50;;;18.95;;
26989;SDS011;14537;47.788;11.858;2023-03-03T14:33:00;53.30;;;18.52;;
26989;SDS011;14537;47.788;11.858;2023-03-03T14:36:10;49.28;;;17.92;;
26989;SDS011;14537;47.788;11.858;2023-03-03T14:41:04;52.55;;;19.25;;
26989;SDS011;14537;47.788;11.858;2023-03-03T14:43:36;49.85;;;18.83;;
26989;SDS011;14537;47.788;11.858;2023-03-03T14:48:57;56.10;;;19.83;;
26989;SDS011;14537;47.788;11.858;2023-03-03T14:51:30;51.70;;;20.33;;
26989;SDS011;14537;47.788;11.858;2023-03-03T14:54:21;58.77;;;21.77;;
26989;SDS011;14537;47.788;11.858;2023-03-03T14:57:15;51.20;;;19.27;;
26989;SDS011;14537;47.788;11.858;2023-03-03T14:59:59;49.30;;;18.30;;
26989;SDS011;14537;47.788;11.858;2023-03-03T15:02:34;44.88;;;16.88;;
26989;SDS011;14537;47.788;11.858;2023-03-03T15:12:53;53.00;;;19.20;;
26989;SDS011;14537;47.788;11.858;2023-03-03T15:15:20;46.95;;;18.42;;
26989;SDS011;14537;47.788;11.858;2023-03-03T15:25:58;51.63;;;18.92;;
26989;SDS011;14537;47.788;11.858;2023-03-03T15:28:45;49.42;;;18.17;;
26989;SDS011;14537;47.788;11.858;2023-03-03T15:35:00;60.10;;;21.35;;
26989;SDS011;14537;47.788;11.858;2023-03-03T15:40:47;57.50;;;19.42;;
26989;SDS011;14537;47.788;11.858;2023-03-03T15:48:51;51.50;;;19.15;;
26989;SDS011;14537;47.788;11.858;2023-03-03T15:56:36;63.00;;;20.85;;
26989;SDS011;14537;47.788;11.858;2023-03-03T16:04:30;49.13;;;19.20;;
26989;SDS011;14537;47.788;11.858;2023-03-03T16:07:04;51.60;;;19.35;;
26989;SDS011;14537;47.788;11.858;2023-03-03T16:12:54;62.65;;;21.10;;
26989;SDS011;14537;47.788;11.858;2023-03-03T16:21:02;51.88;;;19.67;;
26989;SDS011;14537;47.788;11.858;2023-03-03T16:23:56;51.50;;;19.02;;
26989;SDS011;14537;47.788;11.858;2023-03-03T16:26:31;53.50;;;18.67;;
26989;SDS011;14537;47.788;11.858;2023-03-03T16:35:29;64.57;;;22.27;;
26989;SDS011;14537;47.788;11.858;2023-03-03T16:37:58;67.55;;;22.63;;
26989;SDS011;14537;47.788;11.858;2023-03-03T16:40:31;64.57;;;21.45;;
26989;SDS011;14537;47.788;11.858;2023-03-03T16:45:36;63.67;;;20.10;;
26989;SDS011;14537;47.788;11.858;2023-03-03T16:48:24;58.40;;;20.98;;
26989;SDS011;14537;47.788;11.858;2023-03-03T16:53:49;55.35;;;19.83;;
26989;SDS011;14537;47.788;11.858;2023-03-03T16:56:42;62.00;;;22.30;;
26989;SDS011;14537;47.788;11.858;2023-03-03T17:04:30;60.25;;;21.10;;
26989;SDS011;14537;47.788;11.858;2023-03-03T17:07:18;56.90;;;21.10;;
26989;SDS011;14537;47.788;11.858;2023-03-03T17:21:00;72.10;;;25.13;;
26989;SDS011;14537;47.788;11.858;2023-03-03T17:26:20;62.65;;;23.50;;
26989;SDS011;14537;47.788;11.858;2023-03-03T17:29:00;52.35;;;20.05;;
26989;SDS011;14537;47.788;11.858;2023-03-03T17:31:47;60.50;;;20.48;;
26989;SDS011;14537;47.788;11.858;2023-03-03T17:37:37;57.05;;;19.48;;
26989;SDS011;14537;47.788;11.858;2023-03-03T17:43:15;52.28;;;19.05;;
26989;SDS011;14537;47.788;11.858;2023-03-03T17:46:01;51.45;;;19.63;;
26989;SDS011;14537;47.788;11.858;2023-03-03T17:51:35;45.38;;;17.20;;
26989;SDS011;14537;47.788;11.858;2023-03-03T17:54:26;59.80;;;20.20;;
26989;SDS011;14537;47.788;11.858;2023-03-03T18:10:37;58.50;;;21.83;;
26989;SDS011;14537;47.788;11.858;2023-03-03T18:21:42;59.40;;;22.05;;
26989;SDS011;14537;47.788;11.858;2023-03-03T18:26:49;60.15;;;22.52;;
26989;SDS011;14537;47.788;11.858;2023-03-03T18:37:08;67.78;;;22.65;;
26989;SDS011;14537;47.788;11.858;2023-03-03T18:44:56;61.70;;;22.52;;
26989;SDS011;14537;47.788;11.858;2023-03-03T18:50:32;61.85;;;21.65;;
26989;SDS011;14537;47.788;11.858;2023-03-03T18:53:40;55.67;;;21.15;;
26989;SDS011;14537;47.788;11.858;2023-03-03T18:55:52;65.22;;;21.55;;
26989;SDS011;14537;47.788;11.858;2023-03-03T18:58:26;70.75;;;23.23;;
26989;SDS011;14537;47.788;11.858;2023-03-03T19:01:13;64.05;;;22.33;;
26989;SDS011;14537;47.788;11.858;2023-03-03T19:09:04;60.53;;;21.88;;
26989;SDS011;14537;47.788;11.858;2023-03-03T19:11:33;62.10;;;22.10;;
26989;SDS011;14537;47.788;11.858;2023-03-03T19:16:57;71.40;;;25.58;;
26989;SDS011;14537;47.788;11.858;2023-03-03T19:22:29;69.55;;;25.05;;
26989;SDS011;14537;47.788;11.858;2023-03-03T19:38:53;88.63;;;29.48;;
26989;SDS011;14537;47.788;11.858;2023-03-03T19:44:30;116.97;;;33.10;;
26989;SDS011;14537;47.788;11.858;2023-03-03T19:47:12;103.30;;;33.47;;
26989;SDS011;14537;47.788;11.858;2023-03-03T19:50:13;80.95;;;27.38;;
26989;SDS011;14537;47.788;11.858;2023-03-03T19:55:48;93.18;;;29.55;;
26989;SDS011;14537;47.788;11.858;2023-03-03T20:15:31;69.57;;;23.20;;
26989;SDS011;14537;47.788;11.858;2023-03-03T20:29:57;118.43;;;37.85;;
26989;SDS011;14537;47.788;11.858;2023-03-03T20:35:02;90.60;;;29.88;;
26989;SDS011;14537;47.788;11.858;2023-03-03T20:45:55;69.60;;;26.05;;
26989;SDS011;14537;47.788;11.858;2023-03-03T20:49:10;73.95;;;25.88;;
26989;SDS011;14537;47.788;11.858;2023-03-03T20:51:54;66.43;;;25.88;;
26989;SDS011;14537;47.788;11.858;2023-03-03T21:00:09;65.28;;;24.55;;
26989;SDS011;14537;47.788;11.858;2023-03-03T21:05:30;64.38;;;24.73;;
26989;SDS011;14537;47.788;11.858;2023-03-03T21:10:25;89.72;;;34.38;;
26989;SDS011;14537;47.788;11.858;2023-03-03T21:12:53;82.82;;;29.85;;
26989;SDS011;14537;47.788;11.858;2023-03-03T21:15:22;62.15;;;24.92;;
26989;SDS011;14537;47.788;11.858;2023-03-03T21:17:50;59.78;;;23.10;;
26989;SDS011;14537;47.788;11.858;2023-03-03T21:22:52;53.70;;;22.02;;
26989;SDS011;14537;47.788;11.858;2023-03-03T21:28:32;54.20;;;20.98;;
26989;SDS011;14537;47.788;11.858;2023-03-03T21:39:00;63.25;;;22.98;;
26989;SDS011;14537;47.788;11.858;2023-03-03T21:41:49;66.05;;;24.73;;
26989;SDS011;14537;47.788;11.858;2023-03-03T21:44:30;59.17;;;22.15;;
26989;SDS011;14537;47.788;11.858;2023-03-03T21:46:59;62.63;;;23.10;;
26989;SDS011;14537;47.788;11.858;2023-03-03T21:49:26;68.68;;;24.35;;
26989;SDS011;14537;47.788;11.858;2023-03-03T21:51:53;66.18;;;24.02;;
26989;SDS011;14537;47.788;11.858;2023-03-03T21:54:19;65.07;;;22.70;;
26989;SDS011;14537;47.788;11.858;2023-03-03T21:56:44;56.90;;;22.60;;
26989;SDS011;14537;47.788;11.858;2023-03-03T21:59:12;57.97;;;21.95;;
26989;SDS011;14537;47.788;11.858;2023-03-03T22:01:38;54.45;;;20.23;;
26989;SDS011;14537;47.788;11.858;2023-03-03T22:04:03;57.45;;;21.25;;
26989;SDS011;14537;47.788;11.858;2023-03-03T22:06:29;57.00;;;21.80;;
26989;SDS011;14537;47.788;11.858;2023-03-03T22:08:55;56.08;;;21.42;;